Polfoss — V2PN7 — position and weather

sailwx.info

Track history (hours):
 
Tides and Currents Weather Stations Pressure Air Temp Water Temp Dewpoint Dewpoint Depression Visibility Wind Speed Wind Dir Waves Ship Positions

Polfoss

Last reported at 2015-Mar-05 21:33 UTC. Time now 2015-Mar-06 07:34 UTC.
Position N 70°44' E 023°36'.

Length 82 m; draft 5.4 m.

Type: Cargo ship. MMSI: 305081000.

Date/timePositionNaut miles runAvg speedWind from/ knotsBaromVisibWave heightAir tempDewpointWater temp
2015-Mar-05 21:33N 70°44' E 023°36'7 6.6
2015-Mar-05 20:34N 70°38' E 023°39'0 0.1
2015-Mar-05 19:34N 70°38' E 023°39'1211.6
2015-Mar-05 18:34N 70°33' E 023°07'9810.8
2015-Mar-05 09:33N 69°42' E 019°02'2 1.4
2015-Mar-05 08:15N 69°41' E 018°59'1 1.8
2015-Mar-05 07:34N 69°40' E 018°58'0 0.0
2015-Mar-05 06:33N 69°40' E 018°58'0 0.3
2015-Mar-05 05:33N 69°39' E 018°59'231 8.9
2015-Mar-04 03:31N 66°32' E 012°58'3414.6
2015-Mar-04 01:12N 65°60' E 012°30'4214.4
2015-Mar-03 22:16N 65°19' E 012°00'1115.5
2015-Mar-03 21:33N 65°09' E 011°50'1514.6
2015-Mar-03 20:33N 64°57' E 011°30'1515.3
2015-Mar-03 19:33N 64°47' E 011°04'7614.4
2015-Mar-03 14:17N 63°43' E 009°31'281 7.6
2015-Mar-02 01:12N 59°30' E 005°13'913.2
2015-Mar-02 00:33N 59°22' E 005°18'1414.1
2015-Mar-01 23:34N 59°08' E 005°25'1313.3
2015-Mar-01 22:34N 59°02' E 005°47'1010.3
2015-Mar-01 21:33N 58°51' E 005°45'0 0.0
2015-Mar-01 20:33N 58°51' E 005°45'1010.1
2015-Mar-01 19:34N 59°01' E 005°47'1010.3
2015-Mar-01 18:33N 58°55' E 005°32'23014.0
2015-Mar-01 02:09N 57°22' W 001°06'814.4
2015-Mar-01 01:33N 57°18' W 001°21'1414.2
2015-Mar-01 00:33N 57°13' W 001°45'1211.7
2015-Feb-28 23:33N 57°09' W 002°05'0 0.0
2015-Feb-28 22:33N 57°09' W 002°05'0 0.0
2015-Feb-28 21:34N 57°09' W 002°05'0 0.0
2015-Feb-28 20:33N 57°09' W 002°05'0 0.0
2015-Feb-28 19:33N 57°09' W 002°05'0 0.0
2015-Feb-28 18:33N 57°09' W 002°05'0 0.0
2015-Feb-28 17:33N 57°09' W 002°05'0 0.0
2015-Feb-28 16:33N 57°09' W 002°05'0 0.0
2015-Feb-28 15:33N 57°09' W 002°05'0 0.0
2015-Feb-28 14:33N 57°09' W 002°05'0 0.0
2015-Feb-28 13:34N 57°09' W 002°05'0 0.0
2015-Feb-28 12:33N 57°09' W 002°05'0 0.0
2015-Feb-28 11:34N 57°09' W 002°05'13212.8
2015-Feb-28 01:13N 55°07' W 000°34'811.4
2015-Feb-28 00:32N 54°60' W 000°29'1514.9
2015-Feb-27 23:33N 54°46' W 000°20'1514.9
2015-Feb-27 22:33N 54°32' W 000°10'1514.9
2015-Feb-27 21:33N 54°18' W 000°01'1515.3
2015-Feb-27 20:34N 54°04' E 000°07'1515.2
2015-Feb-27 19:33N 53°50' E 000°16'1414.3
2015-Feb-27 18:33N 53°35' E 000°19'1312.9
2015-Feb-27 17:34N 53°36' W 000°03'5 5.4
2015-Feb-27 16:33N 53°38' W 000°11'0 0.1
2015-Feb-27 15:33N 53°38' W 000°11'0 0.0
2015-Feb-27 14:34N 53°38' W 000°11'0 0.0
2015-Feb-27 13:34N 53°38' W 000°11'0 0.0
2015-Feb-27 12:34N 53°38' W 000°11'0 0.0
2015-Feb-27 11:34N 53°38' W 000°11'0 0.0
2015-Feb-27 10:34N 53°38' W 000°11'0 0.0
2015-Feb-27 09:34N 53°38' W 000°11'0 0.0
2015-Feb-27 08:34N 53°38' W 000°11'0 0.0
2015-Feb-27 07:33N 53°38' W 000°11'0 0.0
2015-Feb-27 06:33N 53°38' W 000°11'0 0.0
2015-Feb-27 05:34N 53°38' W 000°11'0 0.0
2015-Feb-27 04:34N 53°38' W 000°11'0 0.0
2015-Feb-27 03:33N 53°38' W 000°11'0 0.0
2015-Feb-27 02:33N 53°38' W 000°11'0 0.0
2015-Feb-27 01:34N 53°38' W 000°11'0 0.1
2015-Feb-27 00:34N 53°38' W 000°11'5 4.5
2015-Feb-26 23:34N 53°37' W 000°04'4 3.7
2015-Feb-26 22:31N 53°36' E 000°02'0 0.0
2015-Feb-26 21:33N 53°36' E 000°02'0 0.0
2015-Feb-26 20:33N 53°35' E 000°02'0 0.1
2015-Feb-26 19:33N 53°36' E 000°02'0 0.0
2015-Feb-26 18:32N 53°35' E 000°02'0 0.0
2015-Feb-26 17:31N 53°35' E 000°02'0 0.0
2015-Feb-26 16:33N 53°35' E 000°02'0 0.0
2015-Feb-26 15:33N 53°35' E 000°02'0 0.0
2015-Feb-26 14:32N 53°35' E 000°02'0 0.0
2015-Feb-26 13:32N 53°36' E 000°02'0 0.0
2015-Feb-26 12:31N 53°36' E 000°02'0 0.0
2015-Feb-26 11:33N 53°36' E 000°02'2 1.9
2015-Feb-26 10:34N 53°36' W 000°01'1 1.2
2015-Feb-26 09:34N 53°35' E 000°01'10 9.9
2015-Feb-26 08:32N 53°32' E 000°17'1111.0
2015-Feb-26 07:31N 53°27' E 000°34'3114.6
2015-Feb-26 05:22N 53°14' E 001°22'1215.2
2015-Feb-26 04:33N 53°09' E 001°41'1414.2
2015-Feb-26 03:33N 53°03' E 002°02'8013.4
2015-Feb-25 21:33N 52°31' E 004°05'1313.1
2015-Feb-25 20:33N 52°29' E 004°26'7 6.6
2015-Feb-25 19:33N 52°28' E 004°36'2 2.1
2015-Feb-25 18:33N 52°28' E 004°40'0 0.0
2015-Feb-25 17:33N 52°28' E 004°40'0 0.0
2015-Feb-25 16:33N 52°28' E 004°40'0 0.0
2015-Feb-25 15:33N 52°28' E 004°40'0 0.0
2015-Feb-25 14:33N 52°28' E 004°40'0 0.0
2015-Feb-25 13:33N 52°28' E 004°40'0 0.0
2015-Feb-25 12:33N 52°28' E 004°40'0 0.0
2015-Feb-25 11:33N 52°28' E 004°40'0 0.0
2015-Feb-25 10:33N 52°28' E 004°40'0 0.0
2015-Feb-25 09:33N 52°28' E 004°40'0 0.0
2015-Feb-25 08:33N 52°28' E 004°40'0 0.0
2015-Feb-25 07:33N 52°28' E 004°40'0 0.0
2015-Feb-25 06:33N 52°28' E 004°40'0 0.0
2015-Feb-25 05:33N 52°28' E 004°40'0 0.0
2015-Feb-25 04:33N 52°28' E 004°40'0 0.0
2015-Feb-25 03:33N 52°28' E 004°40'0 0.0
2015-Feb-25 02:33N 52°28' E 004°40'0 0.0
2015-Feb-25 01:33N 52°28' E 004°40'0 0.0
2015-Feb-25 00:33N 52°28' E 004°40'1 0.9
2015-Feb-24 23:33N 52°28' E 004°38'4 3.7
2015-Feb-24 22:33N 52°28' E 004°32'1111.3
2015-Feb-24 21:33N 52°39' E 004°29'1212.2
2015-Feb-24 20:33N 52°51' E 004°29'1210.6
2015-Feb-24 19:23N 53°04' E 004°31'4511.4
2015-Feb-24 15:27N 53°48' E 004°45'1111.2
2015-Feb-24 14:26N 53°59' E 004°51'1411.2
2015-Feb-24 13:13N 54°12' E 004°54'710.6
2015-Feb-24 12:32N 54°19' E 004°57'  
Track history (hours):
 
Tides and Currents Weather Stations Pressure Air Temp Water Temp Dewpoint Dewpoint Depression Visibility Wind Speed Wind Dir Waves Ship Positions

Polfoss

Last reported at 2015-Mar-05 21:33 UTC. Time now 2015-Mar-06 07:34 UTC.
Position N 70°44' E 023°36'.

Length 82 m; draft 5.4 m.

Type: Cargo ship. MMSI: 305081000.

Date/timePositionNaut miles runAvg speedWind from/ knotsBaromVisibWave heightAir tempDewpointWater temp
2015-Mar-05 21:33N 70°44' E 023°36'7 6.6
2015-Mar-05 20:34N 70°38' E 023°39'0 0.1
2015-Mar-05 19:34N 70°38' E 023°39'1211.6
2015-Mar-05 18:34N 70°33' E 023°07'9810.8
2015-Mar-05 09:33N 69°42' E 019°02'2 1.4
2015-Mar-05 08:15N 69°41' E 018°59'1 1.8
2015-Mar-05 07:34N 69°40' E 018°58'0 0.0
2015-Mar-05 06:33N 69°40' E 018°58'0 0.3
2015-Mar-05 05:33N 69°39' E 018°59'231 8.9
2015-Mar-04 03:31N 66°32' E 012°58'3414.6
2015-Mar-04 01:12N 65°60' E 012°30'4214.4
2015-Mar-03 22:16N 65°19' E 012°00'1115.5
2015-Mar-03 21:33N 65°09' E 011°50'1514.6
2015-Mar-03 20:33N 64°57' E 011°30'1515.3
2015-Mar-03 19:33N 64°47' E 011°04'7614.4
2015-Mar-03 14:17N 63°43' E 009°31'281 7.6
2015-Mar-02 01:12N 59°30' E 005°13'913.2
2015-Mar-02 00:33N 59°22' E 005°18'1414.1
2015-Mar-01 23:34N 59°08' E 005°25'1313.3
2015-Mar-01 22:34N 59°02' E 005°47'1010.3
2015-Mar-01 21:33N 58°51' E 005°45'0 0.0
2015-Mar-01 20:33N 58°51' E 005°45'1010.1
2015-Mar-01 19:34N 59°01' E 005°47'1010.3
2015-Mar-01 18:33N 58°55' E 005°32'23014.0
2015-Mar-01 02:09N 57°22' W 001°06'814.4
2015-Mar-01 01:33N 57°18' W 001°21'1414.2
2015-Mar-01 00:33N 57°13' W 001°45'1211.7
2015-Feb-28 23:33N 57°09' W 002°05'0 0.0
2015-Feb-28 22:33N 57°09' W 002°05'0 0.0
2015-Feb-28 21:34N 57°09' W 002°05'0 0.0
2015-Feb-28 20:33N 57°09' W 002°05'0 0.0
2015-Feb-28 19:33N 57°09' W 002°05'0 0.0
2015-Feb-28 18:33N 57°09' W 002°05'0 0.0
2015-Feb-28 17:33N 57°09' W 002°05'0 0.0
2015-Feb-28 16:33N 57°09' W 002°05'0 0.0
2015-Feb-28 15:33N 57°09' W 002°05'0 0.0
2015-Feb-28 14:33N 57°09' W 002°05'0 0.0
2015-Feb-28 13:34N 57°09' W 002°05'0 0.0
2015-Feb-28 12:33N 57°09' W 002°05'0 0.0
2015-Feb-28 11:34N 57°09' W 002°05'13212.8
2015-Feb-28 01:13N 55°07' W 000°34'811.4
2015-Feb-28 00:32N 54°60' W 000°29'1514.9
2015-Feb-27 23:33N 54°46' W 000°20'1514.9
2015-Feb-27 22:33N 54°32' W 000°10'1514.9
2015-Feb-27 21:33N 54°18' W 000°01'1515.3
2015-Feb-27 20:34N 54°04' E 000°07'1515.2
2015-Feb-27 19:33N 53°50' E 000°16'1414.3
2015-Feb-27 18:33N 53°35' E 000°19'1312.9
2015-Feb-27 17:34N 53°36' W 000°03'5 5.4
2015-Feb-27 16:33N 53°38' W 000°11'0 0.1
2015-Feb-27 15:33N 53°38' W 000°11'0 0.0
2015-Feb-27 14:34N 53°38' W 000°11'0 0.0
2015-Feb-27 13:34N 53°38' W 000°11'0 0.0
2015-Feb-27 12:34N 53°38' W 000°11'0 0.0
2015-Feb-27 11:34N 53°38' W 000°11'0 0.0
2015-Feb-27 10:34N 53°38' W 000°11'0 0.0
2015-Feb-27 09:34N 53°38' W 000°11'0 0.0
2015-Feb-27 08:34N 53°38' W 000°11'0 0.0
2015-Feb-27 07:33N 53°38' W 000°11'0 0.0
2015-Feb-27 06:33N 53°38' W 000°11'0 0.0
2015-Feb-27 05:34N 53°38' W 000°11'0 0.0
2015-Feb-27 04:34N 53°38' W 000°11'0 0.0
2015-Feb-27 03:33N 53°38' W 000°11'0 0.0
2015-Feb-27 02:33N 53°38' W 000°11'0 0.0
2015-Feb-27 01:34N 53°38' W 000°11'0 0.1
2015-Feb-27 00:34N 53°38' W 000°11'5 4.5
2015-Feb-26 23:34N 53°37' W 000°04'4 3.7
2015-Feb-26 22:31N 53°36' E 000°02'0 0.0
2015-Feb-26 21:33N 53°36' E 000°02'0 0.0
2015-Feb-26 20:33N 53°35' E 000°02'0 0.1
2015-Feb-26 19:33N 53°36' E 000°02'0 0.0
2015-Feb-26 18:32N 53°35' E 000°02'0 0.0
2015-Feb-26 17:31N 53°35' E 000°02'0 0.0
2015-Feb-26 16:33N 53°35' E 000°02'0 0.0
2015-Feb-26 15:33N 53°35' E 000°02'0 0.0
2015-Feb-26 14:32N 53°35' E 000°02'0 0.0
2015-Feb-26 13:32N 53°36' E 000°02'0 0.0
2015-Feb-26 12:31N 53°36' E 000°02'0 0.0
2015-Feb-26 11:33N 53°36' E 000°02'2 1.9
2015-Feb-26 10:34N 53°36' W 000°01'1 1.2
2015-Feb-26 09:34N 53°35' E 000°01'10 9.9
2015-Feb-26 08:32N 53°32' E 000°17'1111.0
2015-Feb-26 07:31N 53°27' E 000°34'3114.6
2015-Feb-26 05:22N 53°14' E 001°22'1215.2
2015-Feb-26 04:33N 53°09' E 001°41'1414.2
2015-Feb-26 03:33N 53°03' E 002°02'8013.4
2015-Feb-25 21:33N 52°31' E 004°05'1313.1
2015-Feb-25 20:33N 52°29' E 004°26'7 6.6
2015-Feb-25 19:33N 52°28' E 004°36'2 2.1
2015-Feb-25 18:33N 52°28' E 004°40'0 0.0
2015-Feb-25 17:33N 52°28' E 004°40'0 0.0
2015-Feb-25 16:33N 52°28' E 004°40'0 0.0
2015-Feb-25 15:33N 52°28' E 004°40'0 0.0
2015-Feb-25 14:33N 52°28' E 004°40'0 0.0
2015-Feb-25 13:33N 52°28' E 004°40'0 0.0
2015-Feb-25 12:33N 52°28' E 004°40'0 0.0
2015-Feb-25 11:33N 52°28' E 004°40'0 0.0
2015-Feb-25 10:33N 52°28' E 004°40'0 0.0
2015-Feb-25 09:33N 52°28' E 004°40'0 0.0
2015-Feb-25 08:33N 52°28' E 004°40'0 0.0
2015-Feb-25 07:33N 52°28' E 004°40'0 0.0
2015-Feb-25 06:33N 52°28' E 004°40'0 0.0
2015-Feb-25 05:33N 52°28' E 004°40'0 0.0
2015-Feb-25 04:33N 52°28' E 004°40'0 0.0
2015-Feb-25 03:33N 52°28' E 004°40'0 0.0
2015-Feb-25 02:33N 52°28' E 004°40'0 0.0
2015-Feb-25 01:33N 52°28' E 004°40'0 0.0
2015-Feb-25 00:33N 52°28' E 004°40'1 0.9
2015-Feb-24 23:33N 52°28' E 004°38'4 3.7
2015-Feb-24 22:33N 52°28' E 004°32'1111.3
2015-Feb-24 21:33N 52°39' E 004°29'1212.2
2015-Feb-24 20:33N 52°51' E 004°29'1210.6
2015-Feb-24 19:23N 53°04' E 004°31'4511.4
2015-Feb-24 15:27N 53°48' E 004°45'1111.2
2015-Feb-24 14:26N 53°59' E 004°51'1411.2
2015-Feb-24 13:13N 54°12' E 004°54'710.6
2015-Feb-24 12:32N 54°19' E 004°57'  

Dump ship's entire track history